Hudson, OH (44236)

10:20 AM EST on January 20, 2017 (GMT -0500)
Western Reserve Academy | | Change Station

Elev 1125 ft 41.25 °N, 81.44 °W | Updated 6 seconds ago

Mostly Cloudy
Mostly Cloudy
41.5 °F
Feels Like 42 °F
N
2.0
Wind Variable Wind from WNW

Today
High -- | Low -- °F
--% Chance of Precip.
Yesterday
High -- | Low -- °F
Precip. -- in
Pressure 29.68 in
Visibility 4.0 miles
Clouds Overcast 400 ft
Windchill 42 °F
Dew Point 40 °F
Humidity 96%
Rainfall 0.11 in
Snow Depth Not available.
7:46 AM 5:27 PM
Last Quarter, 43% visible
METAR KPOV 201517Z AUTO 11007KT 4SM DZ OVC004 04/04 A2968 RMK AO2 T00410035
Pressure 29.68 in
Visibility 4.0 miles
Clouds Overcast 400 ft
Windchill 42 °F
Dew Point 40 °F
Humidity 96%
Rainfall 0.11 in
Snow Depth Not available.
7:46 AM 5:27 PM
Last Quarter, 43% visible
METAR KPOV 201517Z AUTO 11007KT 4SM DZ OVC004 04/04 A2968 RMK AO2 T00410035

Get Your Daily Forecast Email!

Thanks for signing up!

Be on the lookout for a verification email in your inbox.

You'll start receiving the daily forecast at 8 AM.

×

10-Day Weather Forecast

Almanac

Astronomy

Jan. 20, 2017 Rise Set
Actual Time
Civil Twilight
Nautical Twilight
Astronomical Twilight
Moon
Length of Visible Light
Length of Day
Tomorrow will be .
, % of the Moon is Illuminated

Today's Extremes

State Highs State Lows

Community

WunderPhotos

Upload Photos

1,962,540 photos uploaded!

WunderBlog® & News

Nearby

Air Quality

  Air Quality AQ Index Pollutant
Not available.

Snow Depth

Station Depth Elevation

Earthquake Activity

City Distance Mag. Time & Date
Minimum magnitude displayed is 2.5.

Coastal Water Temperatures

Place Temperature

Stations

Nearby Weather Stations

Station Location Temp. Windchill Dew Point Humidity Wind Precip. Elev Updated Type
                   

Watches & Warnings

There are currently no watches in effect.